createdAt,value
2023-11-01T00:01:59.597Z,100697.52
2023-11-01T00:04:33.474Z,100699.81
2023-11-01T00:07:03.505Z,100700.46
2023-11-01T00:09:34.808Z,100700.81
2023-11-01T00:12:05.224Z,100702.27
2023-11-01T00:14:34.750Z,100702.89
2023-11-01T00:17:04.295Z,100703.24
2023-11-01T00:19:35.087Z,100705.04
2023-11-01T00:22:04.546Z,100703.30
2023-11-01T00:24:33.987Z,100703.42
2023-11-01T00:27:03.854Z,100699.98
2023-11-01T00:29:33.251Z,100702.38
2023-11-01T00:32:05.485Z,100699.90
2023-11-01T00:34:36.891Z,100695.10
2023-11-01T00:37:09.259Z,100689.86
2023-11-01T00:39:41.014Z,100689.12
2023-11-01T00:42:11.479Z,100688.06
2023-11-01T00:44:41.291Z,100677.70
2023-11-01T00:47:10.855Z,100681.61
2023-11-01T00:49:40.323Z,100687.17
2023-11-01T00:52:10.237Z,100695.56
2023-11-01T00:54:40.825Z,100693.75
2023-11-01T00:57:11.333Z,100687.19
2023-11-01T00:59:41.017Z,100687.96
2023-11-01T01:02:10.548Z,100693.57
2023-11-01T01:04:40.118Z,100698.57
2023-11-01T01:07:09.729Z,100692.34
2023-11-01T01:09:39.303Z,100690.69
2023-11-01T01:12:09.410Z,100680.06
2023-11-01T01:14:38.802Z,100673.90
2023-11-01T01:17:09.151Z,100673.48
2023-11-01T01:19:39.792Z,100675.72
2023-11-01T01:22:09.194Z,100666.09
2023-11-01T01:24:38.422Z,100671.18
2023-11-01T01:27:08.038Z,100678.12
2023-11-01T01:29:37.463Z,100685.98
2023-11-01T01:32:07.257Z,100681.19
2023-11-01T01:34:36.581Z,100681.97
2023-11-01T01:37:06.248Z,100683.23
2023-11-01T01:39:38.842Z,100687.06
2023-11-01T01:42:08.509Z,100689.04
2023-11-01T01:44:39.115Z,100700.44
2023-11-01T01:47:09.965Z,100702.61
2023-11-01T01:49:45.666Z,100699.23
2023-11-01T01:52:16.841Z,100702.28
2023-11-01T01:54:47.539Z,100701.20
2023-11-01T01:57:26.091Z,100704.35
2023-11-01T01:59:59.295Z,100702.27
2023-11-01T02:02:28.877Z,100703.48
2023-11-01T02:04:59.524Z,100706.08
2023-11-01T02:07:29.875Z,100726.14
2023-11-01T02:09:59.242Z,100722.05
2023-11-01T02:12:28.780Z,100716.70
2023-11-01T02:15:00.450Z,100722.48
2023-11-01T02:17:30.154Z,100725.10
2023-11-01T02:19:59.786Z,100731.50
2023-11-01T02:22:29.304Z,100732.39
2023-11-01T02:24:59.328Z,100729.08
2023-11-01T02:27:30.248Z,100716.84
2023-11-01T02:29:59.701Z,100719.14
2023-11-01T02:32:31.811Z,100728.92
2023-11-01T02:35:01.561Z,100733.14
2023-11-01T02:37:30.985Z,100736.02
2023-11-01T02:40:00.384Z,100737.59
2023-11-01T02:42:29.864Z,100737.75
2023-11-01T02:44:59.282Z,100743.70
2023-11-01T02:47:30.321Z,100757.19
2023-11-01T02:50:01.803Z,100774.21
2023-11-01T02:52:31.668Z,100770.48
2023-11-01T02:55:10.340Z,100770.94
2023-11-01T02:57:41.491Z,100765.77
2023-11-01T03:00:21.771Z,100780.39
2023-11-01T03:02:55.460Z,100797.39
2023-11-01T03:05:28.428Z,100803.92
2023-11-01T03:07:57.983Z,100817.27
2023-11-01T03:10:27.496Z,100816.06
2023-11-01T03:12:58.114Z,100821.10
2023-11-01T03:15:27.378Z,100823.48
2023-11-01T03:17:56.728Z,100826.68
2023-11-01T03:20:27.672Z,100825.58
2023-11-01T03:22:56.980Z,100829.13
2023-11-01T03:25:26.323Z,100829.55
2023-11-01T03:27:56.043Z,100831.91
2023-11-01T03:30:26.205Z,100824.94
2023-11-01T03:32:56.643Z,100823.89
2023-11-01T03:35:27.398Z,100824.09
2023-11-01T03:37:56.778Z,100829.10
2023-11-01T03:40:28.185Z,100835.14
2023-11-01T03:42:58.163Z,100839.27
2023-11-01T03:45:27.665Z,100842.50
2023-11-01T03:47:57.200Z,100844.38
2023-11-01T03:50:26.744Z,100844.23
2023-11-01T03:52:56.302Z,100843.51
2023-11-01T03:55:26.782Z,100851.98
2023-11-01T03:57:56.204Z,100850.27
2023-11-01T04:00:26.765Z,100848.79
2023-11-01T04:02:56.666Z,100853.45
2023-11-01T04:05:26.104Z,100850.52
2023-11-01T04:07:55.797Z,100844.25
2023-11-01T04:10:26.626Z,100837.64
2023-11-01T04:12:56.550Z,100835.65
2023-11-01T04:15:26.146Z,100834.75
2023-11-01T04:17:55.830Z,100834.55
2023-11-01T04:20:27.859Z,100837.16
2023-11-01T04:22:57.503Z,100835.65
2023-11-01T04:25:27.449Z,100836.23
2023-11-01T04:27:57.806Z,100834.05
2023-11-01T04:30:27.851Z,100838.00
2023-11-01T04:32:57.433Z,100833.98
2023-11-01T04:35:26.762Z,100838.67
2023-11-01T04:37:56.575Z,100845.27
2023-11-01T04:40:26.541Z,100857.90
2023-11-01T04:42:57.439Z,100862.84
2023-11-01T04:45:26.964Z,100873.19
2023-11-01T04:47:56.444Z,100883.86
2023-11-01T04:50:26.272Z,100886.16
2023-11-01T04:52:56.419Z,100885.52
2023-11-01T04:55:25.904Z,100876.39
2023-11-01T04:57:55.615Z,100867.70
2023-11-01T05:00:25.809Z,100876.92
2023-11-01T05:02:55.330Z,100885.98
2023-11-01T05:05:24.805Z,100893.30
2023-11-01T05:07:54.491Z,100895.65
2023-11-01T05:10:27.697Z,100897.84
2023-11-01T05:12:58.813Z,100898.18
2023-11-01T05:15:28.562Z,100905.42
2023-11-01T05:17:58.530Z,100904.27
2023-11-01T05:20:30.337Z,100896.48
2023-11-01T05:22:59.746Z,100924.33
2023-11-01T05:25:30.710Z,100940.63
2023-11-01T05:28:00.325Z,100945.17
2023-11-01T05:30:30.642Z,100940.50
2023-11-01T05:33:00.092Z,100933.14
2023-11-01T05:35:29.790Z,100938.63
2023-11-01T05:38:04.189Z,100936.02
2023-11-01T05:40:33.906Z,100938.05
2023-11-01T05:43:03.244Z,100952.67
2023-11-01T05:45:33.279Z,100954.30
2023-11-01T05:48:10.100Z,100953.73
2023-11-01T05:50:42.525Z,100947.95
2023-11-01T05:53:12.456Z,100950.08
2023-11-01T05:55:54.762Z,100952.98
2023-11-01T05:58:31.569Z,100956.89
2023-11-01T06:01:02.229Z,100952.61
2023-11-01T06:03:32.448Z,100961.67
2023-11-01T06:06:02.157Z,100977.87
2023-11-01T06:08:31.388Z,100986.33
2023-11-01T06:11:00.920Z,100992.23
2023-11-01T06:13:30.348Z,101002.56
2023-11-01T06:16:06.814Z,101006.80
2023-11-01T06:18:36.449Z,101007.76
2023-11-01T06:21:06.944Z,101004.88
2023-11-01T06:23:39.768Z,101005.20
2023-11-01T06:26:09.413Z,101010.23
2023-11-01T06:28:39.124Z,101015.23
2023-11-01T06:31:08.729Z,101027.95
2023-11-01T06:33:38.244Z,101023.20
2023-11-01T06:36:09.626Z,101030.22
2023-11-01T06:38:39.291Z,101043.09
2023-11-01T06:41:08.696Z,101044.10
2023-11-01T06:43:39.443Z,101043.25
2023-11-01T06:46:08.776Z,101043.48
2023-11-01T06:48:38.510Z,101040.27
2023-11-01T06:51:12.595Z,101040.11
2023-11-01T06:53:41.975Z,101021.02
2023-11-01T06:56:14.518Z,101015.06
2023-11-01T06:59:11.857Z,101010.77
2023-11-01T07:01:43.027Z,101009.19
2023-11-01T07:04:17.797Z,100996.33
2023-11-01T07:06:47.244Z,100995.75
2023-11-01T07:09:18.803Z,100993.10
2023-11-01T07:11:48.251Z,101010.56
2023-11-01T07:14:20.767Z,101008.30
2023-11-01T07:16:50.310Z,101021.23
2023-11-01T07:19:20.169Z,101031.21
2023-11-01T07:21:49.446Z,101045.25
2023-11-01T07:24:20.429Z,101056.03
2023-11-01T07:26:50.061Z,101054.02
2023-11-01T07:29:21.084Z,101062.24
2023-11-01T07:31:50.479Z,101070.13
2023-11-01T07:34:19.822Z,101073.73
2023-11-01T07:36:49.150Z,101080.61
2023-11-01T07:39:18.731Z,101083.20
2023-11-01T07:41:48.438Z,101090.15
2023-11-01T07:44:18.355Z,101095.20
2023-11-01T07:46:47.787Z,101099.59
2023-11-01T07:49:17.337Z,101092.11
2023-11-01T07:51:46.554Z,101089.40
2023-11-01T07:54:15.959Z,101094.54
2023-11-01T07:56:45.515Z,101092.30
2023-11-01T07:59:15.353Z,101093.29
2023-11-01T08:01:45.126Z,101099.89
2023-11-01T08:04:16.407Z,101103.25
2023-11-01T08:06:47.218Z,101100.11
2023-11-01T08:09:16.885Z,101097.89
2023-11-01T08:11:46.246Z,101094.17
2023-11-01T08:14:15.906Z,101098.63
2023-11-01T08:16:49.369Z,101101.58
2023-11-01T08:19:19.135Z,101100.58
2023-11-01T08:21:48.601Z,101105.29
2023-11-01T08:24:18.151Z,101106.26
2023-11-01T08:26:47.570Z,101112.20
2023-11-01T08:29:18.154Z,101110.82
2023-11-01T08:31:48.391Z,101107.13
2023-11-01T08:34:17.699Z,101096.94
2023-11-01T08:36:47.008Z,101094.34
2023-11-01T08:39:16.608Z,101095.81
2023-11-01T08:41:45.974Z,101099.42
2023-11-01T08:44:15.333Z,101092.08
2023-11-01T08:46:46.729Z,101092.02
2023-11-01T08:49:16.253Z,101091.59
2023-11-01T08:51:45.641Z,101097.42
2023-11-01T08:54:15.110Z,101095.95
2023-11-01T08:56:47.189Z,101095.66
2023-11-01T08:59:16.703Z,101097.29
2023-11-01T09:01:46.050Z,101099.54
2023-11-01T09:04:20.542Z,101098.27
2023-11-01T09:06:54.871Z,101100.08
2023-11-01T09:09:24.838Z,101097.58
2023-11-01T09:11:54.126Z,101097.23
2023-11-01T09:14:26.245Z,101089.46
2023-11-01T09:16:56.595Z,101092.71
2023-11-01T09:19:26.311Z,101090.98
2023-11-01T09:21:56.794Z,101093.73
2023-11-01T09:24:27.003Z,101092.14
2023-11-01T09:26:56.530Z,101094.64
2023-11-01T09:29:27.585Z,101097.47
2023-11-01T09:31:58.314Z,101096.65
2023-11-01T09:34:27.903Z,101098.09
2023-11-01T09:36:57.213Z,101088.37
2023-11-01T09:39:26.550Z,101086.81
2023-11-01T09:42:02.316Z,101083.59
2023-11-01T09:44:33.999Z,101082.77
2023-11-01T09:47:05.234Z,101077.61
2023-11-01T09:49:37.573Z,101075.00
2023-11-01T09:52:08.101Z,101068.64
2023-11-01T09:54:37.662Z,101068.77
2023-11-01T09:57:07.699Z,101063.56
2023-11-01T09:59:38.626Z,101059.99
2023-11-01T10:02:10.907Z,101053.56
2023-11-01T10:04:40.930Z,101052.83
2023-11-01T10:07:11.858Z,101057.92
2023-11-01T10:09:41.399Z,101059.85
2023-11-01T10:12:14.814Z,101053.15
2023-11-01T10:14:44.650Z,101053.38
2023-11-01T10:17:14.001Z,101051.27
2023-11-01T10:19:44.896Z,101052.89
2023-11-01T10:22:15.076Z,101055.95
2023-11-01T10:24:44.654Z,101055.11
2023-11-01T10:27:14.019Z,101053.00
2023-11-01T10:29:46.180Z,101053.60
2023-11-01T10:32:16.314Z,101050.15
2023-11-01T10:34:45.674Z,101051.77
2023-11-01T10:37:19.341Z,101049.86
2023-11-01T10:39:50.034Z,101055.98
2023-11-01T10:42:20.892Z,101050.17
2023-11-01T10:44:51.777Z,101051.47
2023-11-01T10:47:23.185Z,101053.94
2023-11-01T10:49:57.245Z,101059.34
2023-11-01T10:52:28.367Z,101057.80
2023-11-01T10:55:01.735Z,101062.28
2023-11-01T10:57:33.639Z,101051.92
2023-11-01T11:00:17.448Z,101051.74
2023-11-01T11:03:04.794Z,101037.95
2023-11-01T11:05:41.987Z,101037.12
2023-11-01T11:08:11.953Z,101038.77
2023-11-01T11:10:43.439Z,101029.98
2023-11-01T11:13:17.997Z,101029.23
2023-11-01T11:16:28.758Z,101028.02
2023-11-01T11:18:58.404Z,101027.95
2023-11-01T11:21:46.765Z,101032.98
2023-11-01T11:24:33.168Z,101023.70
2023-11-01T11:27:02.660Z,101026.40
2023-11-01T11:29:45.170Z,101027.30
2023-11-01T11:32:18.609Z,101019.39
2023-11-01T11:34:48.895Z,101021.31
2023-11-01T11:37:30.124Z,101020.55
2023-11-01T11:40:09.221Z,101011.60
2023-11-01T11:42:51.890Z,101013.33
2023-11-01T11:45:29.029Z,101014.90
2023-11-01T11:48:04.236Z,101012.00
2023-11-01T11:50:35.758Z,101014.14
2023-11-01T11:53:05.152Z,101015.96
2023-11-01T11:55:43.943Z,101013.25
2023-11-01T11:58:14.323Z,101017.89
2023-11-01T12:00:49.912Z,101022.93
2023-11-01T12:03:25.670Z,101018.42
2023-11-01T12:06:00.943Z,101023.15
2023-11-01T12:08:36.266Z,101021.32
2023-11-01T12:11:05.806Z,101019.90
2023-11-01T12:13:45.887Z,101028.56
2023-11-01T12:16:29.924Z,101025.80
2023-11-01T12:19:20.629Z,101025.27
2023-11-01T12:21:59.582Z,101021.53
2023-11-01T12:24:46.360Z,101018.28
2023-11-01T12:27:19.568Z,101018.15
2023-11-01T12:29:50.998Z,101016.89
2023-11-01T12:32:24.703Z,101028.55
2023-11-01T12:34:55.038Z,101028.19
2023-11-01T12:37:31.290Z,101029.98
2023-11-01T12:40:17.143Z,101027.08
2023-11-01T12:42:51.271Z,101029.40
2023-11-01T12:45:21.442Z,101034.94
2023-11-01T12:47:54.896Z,101034.91
2023-11-01T12:50:36.678Z,101035.35
2023-11-01T12:53:06.235Z,101030.45
2023-11-01T12:55:35.568Z,101035.52
2023-11-01T12:58:08.504Z,101027.48
2023-11-01T13:00:38.904Z,101033.69
2023-11-01T13:03:09.054Z,101038.20
2023-11-01T13:05:39.678Z,101042.81
2023-11-01T13:08:10.051Z,101040.64
2023-11-01T13:10:40.667Z,101033.61
2023-11-01T13:13:11.680Z,101035.92
2023-11-01T13:15:41.932Z,101035.08
2023-11-01T13:18:11.597Z,101036.14
2023-11-01T13:20:44.536Z,101040.39
2023-11-01T13:23:30.514Z,101037.06
2023-11-01T13:26:00.107Z,101034.35
2023-11-01T13:28:29.687Z,101037.23
2023-11-01T13:30:59.237Z,101036.94
2023-11-01T13:33:31.007Z,101035.24
2023-11-01T13:36:01.384Z,101042.75
2023-11-01T13:38:31.781Z,101042.48
2023-11-01T13:41:01.842Z,101047.19
2023-11-01T13:43:35.363Z,101043.08
2023-11-01T13:46:06.183Z,101047.85
2023-11-01T13:48:36.434Z,101052.59
2023-11-01T13:51:21.124Z,101057.96
2023-11-01T13:53:50.681Z,101063.11
2023-11-01T13:56:22.041Z,101059.48
2023-11-01T13:58:55.327Z,101066.47
2023-11-01T14:01:25.732Z,101064.70
2023-11-01T14:03:59.263Z,101072.06
2023-11-01T14:06:42.404Z,101072.96
2023-11-01T14:09:13.602Z,101077.23
2023-11-01T14:11:53.025Z,101082.38
2023-11-01T14:14:24.392Z,101080.95
2023-11-01T14:16:54.138Z,101077.38
2023-11-01T14:19:25.519Z,101082.15
2023-11-01T14:22:00.113Z,101083.70
2023-11-01T14:24:31.166Z,101086.48
2023-11-01T14:27:03.550Z,101085.82
2023-11-01T14:29:33.192Z,101085.67
2023-11-01T14:32:06.309Z,101085.73
2023-11-01T14:34:35.863Z,101085.38
2023-11-01T14:37:05.524Z,101088.26
2023-11-01T14:39:34.992Z,101092.71
2023-11-01T14:42:04.990Z,101096.09
2023-11-01T14:44:34.667Z,101099.28
2023-11-01T14:47:04.361Z,101099.39
2023-11-01T14:49:34.195Z,101101.69
2023-11-01T14:52:04.129Z,101097.42
2023-11-01T14:54:33.652Z,101099.73
2023-11-01T14:57:03.213Z,101104.48
2023-11-01T14:59:33.840Z,101105.02
2023-11-01T15:02:05.115Z,101111.88
2023-11-01T15:04:34.641Z,101112.70
2023-11-01T15:07:04.482Z,101113.27
2023-11-01T15:09:35.954Z,101116.67
2023-11-01T15:12:06.219Z,101111.88
2023-11-01T15:14:35.742Z,101115.95
2023-11-01T15:17:05.279Z,101119.09
2023-11-01T15:19:34.648Z,101125.38
2023-11-01T15:22:04.486Z,101128.15
2023-11-01T15:24:33.878Z,101132.06
2023-11-01T15:27:03.469Z,101137.35
2023-11-01T15:29:32.950Z,101138.32
2023-11-01T15:32:02.449Z,101141.80
2023-11-01T15:34:31.937Z,101140.85
2023-11-01T15:37:02.165Z,101143.25
2023-11-01T15:39:31.959Z,101147.09
2023-11-01T15:42:01.390Z,101147.42
2023-11-01T15:44:30.719Z,101149.88
2023-11-01T15:47:00.243Z,101153.37
2023-11-01T15:49:29.668Z,101152.98
2023-11-01T15:52:02.118Z,101154.92
2023-11-01T15:54:32.460Z,101160.74
2023-11-01T15:57:02.094Z,101160.02
2023-11-01T15:59:31.414Z,101160.75
2023-11-01T16:02:00.729Z,101165.29
2023-11-01T16:04:30.521Z,101169.88
2023-11-01T16:07:00.025Z,101173.17
2023-11-01T16:09:30.440Z,101173.02
2023-11-01T16:11:59.911Z,101174.63
2023-11-01T16:14:30.451Z,101182.67
2023-11-01T16:17:00.356Z,101184.87
2023-11-01T16:19:30.179Z,101188.45
2023-11-01T16:21:59.683Z,101191.65
2023-11-01T16:24:29.731Z,101193.83
2023-11-01T16:26:59.548Z,101200.09
2023-11-01T16:29:29.180Z,101203.84
2023-11-01T16:31:59.051Z,101210.60
2023-11-01T16:34:28.286Z,101213.01
2023-11-01T16:36:57.767Z,101220.19
2023-11-01T16:39:27.245Z,101235.20
2023-11-01T16:41:56.663Z,101245.95
2023-11-01T16:44:26.313Z,101251.77
2023-11-01T16:46:58.384Z,101265.20
2023-11-01T16:49:28.444Z,101260.93
2023-11-01T16:51:57.833Z,101260.45
2023-11-01T16:54:27.268Z,101256.80
2023-11-01T16:56:56.976Z,101264.48
2023-11-01T16:59:26.627Z,101269.02
2023-11-01T17:02:02.519Z,101266.50
2023-11-01T17:04:36.723Z,101271.83
2023-11-01T17:07:09.007Z,101267.64
2023-11-01T17:09:39.792Z,101266.16
2023-11-01T17:12:10.206Z,101277.71
2023-11-01T17:14:40.010Z,101284.77
2023-11-01T17:17:10.045Z,101288.58
2023-11-01T17:19:45.001Z,101292.57
2023-11-01T17:22:48.909Z,101299.88
2023-11-01T17:25:53.155Z,101307.61
2023-11-01T17:28:35.810Z,101315.02
2023-11-01T17:31:15.655Z,101314.98
2023-11-01T17:33:49.575Z,101309.53
2023-11-01T17:36:28.237Z,101308.31
2023-11-01T17:39:06.755Z,101312.57
2023-11-01T17:41:57.583Z,101316.79
2023-11-01T17:44:34.321Z,101318.58
2023-11-01T17:47:07.689Z,101318.45
2023-11-01T17:49:46.657Z,101321.83
2023-11-01T17:52:33.548Z,101320.03
2023-11-01T17:55:09.344Z,101319.98
2023-11-01T17:57:40.528Z,101319.93
2023-11-01T18:00:10.815Z,101321.27
2023-11-01T18:02:48.994Z,101316.08
2023-11-01T18:05:53.617Z,101317.23
2023-11-01T18:08:33.589Z,101319.00
2023-11-01T18:11:09.591Z,101319.86
2023-11-01T18:13:42.132Z,101323.78
2023-11-01T18:16:12.443Z,101328.52
2023-11-01T18:18:46.289Z,101339.10
2023-11-01T18:21:21.756Z,101349.38
2023-11-01T18:24:14.425Z,101347.70
2023-11-01T18:26:48.796Z,101347.66
2023-11-01T18:29:18.879Z,101353.71
2023-11-01T18:31:51.302Z,101357.14
2023-11-01T18:34:23.981Z,101358.45
2023-11-01T18:36:57.093Z,101357.84
2023-11-01T18:39:31.025Z,101359.07
2023-11-01T18:42:08.669Z,101365.82
2023-11-01T18:44:50.621Z,101371.45
2023-11-01T18:47:29.836Z,101377.70
2023-11-01T18:50:06.535Z,101385.21
2023-11-01T18:52:43.935Z,101388.52
2023-11-01T18:55:30.713Z,101383.55
2023-11-01T18:58:09.464Z,101378.52
2023-11-01T19:00:40.783Z,101381.22
2023-11-01T19:03:18.079Z,101388.40
2023-11-01T19:05:53.102Z,101393.08
2023-11-01T19:08:34.488Z,101394.08
2023-11-01T19:11:04.217Z,101386.06
2023-11-01T19:13:38.083Z,101385.08
2023-11-01T19:16:17.661Z,101382.70
2023-11-01T19:18:49.830Z,101383.04
2023-11-01T19:21:23.998Z,101388.77
2023-11-01T19:23:56.511Z,101399.14
2023-11-01T19:26:29.728Z,101404.73
2023-11-01T19:29:00.000Z,101399.99
2023-11-01T19:31:36.230Z,101400.50
2023-11-01T19:34:07.212Z,101395.75
2023-11-01T19:36:43.545Z,101401.95
2023-11-01T19:39:13.283Z,101401.75
2023-11-01T19:41:48.278Z,101404.01
2023-11-01T19:44:18.719Z,101409.10
2023-11-01T19:46:50.357Z,101409.49
2023-11-01T19:49:20.597Z,101405.89
2023-11-01T19:51:52.426Z,101402.17
2023-11-01T19:54:24.961Z,101394.88
2023-11-01T19:56:54.496Z,101392.67
2023-11-01T19:59:24.036Z,101393.14
2023-11-01T20:01:56.565Z,101389.92
2023-11-01T20:04:26.171Z,101387.43
2023-11-01T20:06:58.870Z,101388.01
2023-11-01T20:09:31.809Z,101388.66
2023-11-01T20:12:01.380Z,101391.83
2023-11-01T20:14:34.771Z,101389.09
2023-11-01T20:17:09.597Z,101389.88
2023-11-01T20:19:39.205Z,101389.09
2023-11-01T20:22:09.000Z,101386.72
2023-11-01T20:24:38.517Z,101384.96
2023-11-01T20:27:10.064Z,101381.73
2023-11-01T20:29:41.458Z,101377.27
2023-11-01T20:32:12.080Z,101375.76
2023-11-01T20:34:42.607Z,101375.09
2023-11-01T20:37:13.379Z,101374.73
2023-11-01T20:39:42.782Z,101371.49
2023-11-01T20:42:12.464Z,101365.47
2023-11-01T20:44:42.090Z,101364.08
2023-11-01T20:47:11.686Z,101364.25
2023-11-01T20:49:41.455Z,101367.16
2023-11-01T20:52:11.005Z,101374.55
2023-11-01T20:54:54.770Z,101372.48
2023-11-01T20:57:26.439Z,101361.61
2023-11-01T20:59:55.997Z,101356.83
2023-11-01T21:02:26.427Z,101356.83
2023-11-01T21:04:57.454Z,101361.85
2023-11-01T21:07:32.356Z,101362.10
2023-11-01T21:10:01.792Z,101362.70
2023-11-01T21:12:34.467Z,101358.56
2023-11-01T21:15:04.217Z,101357.63
2023-11-01T21:17:37.414Z,101363.72
2023-11-01T21:20:13.064Z,101363.89
2023-11-01T21:22:44.789Z,101362.23
2023-11-01T21:25:16.383Z,101358.45
2023-11-01T21:27:45.780Z,101363.48
2023-11-01T21:32:45.274Z,101363.30
2023-11-01T21:35:22.741Z,101361.85
2023-11-01T21:37:58.469Z,101364.27
2023-11-01T21:40:27.970Z,101363.20
2023-11-01T21:42:57.663Z,101362.41
2023-11-01T21:45:54.809Z,101357.03
2023-11-01T21:48:28.251Z,101352.98
2023-11-01T21:50:59.289Z,101354.98
2023-11-01T21:53:39.908Z,101357.64
2023-11-01T21:56:10.001Z,101352.73
2023-11-01T21:58:40.065Z,101345.11
2023-11-01T22:01:09.325Z,101350.64
2023-11-01T22:03:48.637Z,101352.81
2023-11-01T22:06:30.738Z,101355.02
2023-11-01T22:09:06.184Z,101357.75
2023-11-01T22:11:39.379Z,101361.74
2023-11-01T22:14:16.849Z,101366.71
2023-11-01T22:16:46.382Z,101368.55
2023-11-01T22:19:24.263Z,101364.61
2023-11-01T22:21:54.138Z,101358.06
2023-11-01T22:24:23.445Z,101359.85
2023-11-01T22:26:58.400Z,101360.08
2023-11-01T22:29:41.127Z,101362.69
2023-11-01T22:32:24.874Z,101362.27
2023-11-01T22:34:55.609Z,101357.86
2023-11-01T22:37:28.448Z,101363.38
2023-11-01T22:39:58.040Z,101361.20
2023-11-01T22:42:32.249Z,101352.95
2023-11-01T22:45:03.173Z,101353.20
2023-11-01T22:47:33.513Z,101344.30
2023-11-01T22:50:03.777Z,101332.21
2023-11-01T22:52:34.890Z,101332.73
2023-11-01T22:55:05.122Z,101333.96
2023-11-01T22:57:34.675Z,101339.83
2023-11-01T23:00:29.279Z,101340.92
2023-11-01T23:02:59.373Z,101343.16
2023-11-01T23:05:30.077Z,101342.24
2023-11-01T23:08:02.670Z,101344.55
2023-11-01T23:10:34.213Z,101341.91
2023-11-01T23:13:03.735Z,101347.70
2023-11-01T23:15:33.156Z,101348.84
2023-11-01T23:18:04.671Z,101344.45
2023-11-01T23:20:34.270Z,101343.45
2023-11-01T23:23:03.680Z,101344.73
2023-11-01T23:25:33.383Z,101350.98
2023-11-01T23:28:23.199Z,101345.00
2023-11-01T23:30:55.021Z,101346.63
2023-11-01T23:33:37.844Z,101347.43
2023-11-01T23:36:14.145Z,101346.73
2023-11-01T23:38:49.410Z,101349.26
2023-11-01T23:41:27.842Z,101348.82
2023-11-01T23:44:00.887Z,101347.57
2023-11-01T23:46:30.379Z,101350.24
2023-11-01T23:49:03.653Z,101350.25
2023-11-01T23:51:58.741Z,101350.05
2023-11-01T23:54:28.246Z,101348.39
2023-11-01T23:56:57.738Z,101350.47
2023-11-01T23:59:28.038Z,101352.06
